sensor_id;sensor_type;location;lat;lon;timestamp;pressure;altitude;pressure_sealevel;temperature;humidity
39789;BME280;25478;42.626;23.320;2022-08-05T00:02:16;93313.34;;;18.64;62.11
39789;BME280;25478;42.626;23.320;2022-08-05T00:04:48;93310.53;;;18.55;63.01
39789;BME280;25478;42.626;23.320;2022-08-05T00:07:20;93308.63;;;18.55;63.14
39789;BME280;25478;42.626;23.320;2022-08-05T00:09:52;93313.13;;;18.59;63.92
39789;BME280;25478;42.626;23.320;2022-08-05T00:12:17;93313.94;;;18.55;64.28
39789;BME280;25478;42.626;23.320;2022-08-05T00:14:49;93319.38;;;18.52;64.62
39789;BME280;25478;42.626;23.320;2022-08-05T00:17:21;93310.69;;;18.48;64.50
39789;BME280;25478;42.626;23.320;2022-08-05T00:19:53;93309.63;;;18.45;64.43
39789;BME280;25478;42.626;23.320;2022-08-05T00:22:25;93310.03;;;18.44;64.01
39789;BME280;25478;42.626;23.320;2022-08-05T00:24:57;93309.72;;;18.42;63.98
39789;BME280;25478;42.626;23.320;2022-08-05T00:27:29;93306.69;;;18.40;63.86
39789;BME280;25478;42.626;23.320;2022-08-05T00:30:08;93303.28;;;18.39;63.88
39789;BME280;25478;42.626;23.320;2022-08-05T00:32:41;93310.22;;;18.37;63.99
39789;BME280;25478;42.626;23.320;2022-08-05T00:35:13;93300.41;;;18.34;64.51
39789;BME280;25478;42.626;23.320;2022-08-05T00:37:38;93277.16;;;18.18;65.61
39789;BME280;25478;42.626;23.320;2022-08-05T00:40:10;93292.63;;;18.23;66.06
39789;BME280;25478;42.626;23.320;2022-08-05T00:42:42;93293.16;;;18.18;66.55
39789;BME280;25478;42.626;23.320;2022-08-05T00:45:14;93299.66;;;18.17;66.94
39789;BME280;25478;42.626;23.320;2022-08-05T00:47:46;93290.97;;;18.13;67.04
39789;BME280;25478;42.626;23.320;2022-08-05T00:50:18;93289.63;;;18.05;66.26
39789;BME280;25478;42.626;23.320;2022-08-05T00:52:50;93280.72;;;17.95;65.98
39789;BME280;25478;42.626;23.320;2022-08-05T00:55:22;93274.97;;;17.96;66.45
39789;BME280;25478;42.626;23.320;2022-08-05T00:57:54;93287.28;;;18.07;66.45
39789;BME280;25478;42.626;23.320;2022-08-05T01:00:28;93297.63;;;18.05;66.05
39789;BME280;25478;42.626;23.320;2022-08-05T01:03:00;93307.25;;;17.98;65.96
39789;BME280;25478;42.626;23.320;2022-08-05T01:05:32;93301.88;;;18.02;66.07
39789;BME280;25478;42.626;23.320;2022-08-05T01:08:04;93299.97;;;18.03;66.26
39789;BME280;25478;42.626;23.320;2022-08-05T01:10:46;93282.31;;;17.92;66.96
39789;BME280;25478;42.626;23.320;2022-08-05T01:16:16;93302.78;;;17.95;67.56
39789;BME280;25478;42.626;23.320;2022-08-05T01:18:51;93297.13;;;17.93;68.64
39789;BME280;25478;42.626;23.320;2022-08-05T01:24:34;93289.78;;;17.81;69.23
39789;BME280;25478;42.626;23.320;2022-08-05T01:29:54;93295.72;;;17.69;69.18
39789;BME280;25478;42.626;23.320;2022-08-05T01:32:30;93296.19;;;17.64;70.16
39789;BME280;25478;42.626;23.320;2022-08-05T01:35:15;93293.28;;;17.58;70.29
39789;BME280;25478;42.626;23.320;2022-08-05T01:37:53;93291.84;;;17.54;70.58
39789;BME280;25478;42.626;23.320;2022-08-05T01:40:28;93296.50;;;17.50;70.79
39789;BME280;25478;42.626;23.320;2022-08-05T01:43:02;93290.09;;;17.47;71.50
39789;BME280;25478;42.626;23.320;2022-08-05T01:45:34;93290.16;;;17.43;71.93
39789;BME280;25478;42.626;23.320;2022-08-05T01:48:08;93290.63;;;17.38;72.29
39789;BME280;25478;42.626;23.320;2022-08-05T01:50:41;93304.03;;;17.35;71.96
39789;BME280;25478;42.626;23.320;2022-08-05T01:53:14;93299.13;;;17.33;72.06
39789;BME280;25478;42.626;23.320;2022-08-05T01:55:48;93304.50;;;17.30;72.29
39789;BME280;25478;42.626;23.320;2022-08-05T01:58:23;93305.31;;;17.27;72.72
39789;BME280;25478;42.626;23.320;2022-08-05T02:00:57;93295.66;;;17.16;73.29
39789;BME280;25478;42.626;23.320;2022-08-05T02:03:37;93302.88;;;17.16;73.64
39789;BME280;25478;42.626;23.320;2022-08-05T02:06:10;93292.50;;;17.02;74.14
39789;BME280;25478;42.626;23.320;2022-08-05T02:08:43;93302.69;;;17.07;74.67
39789;BME280;25478;42.626;23.320;2022-08-05T02:11:16;93296.31;;;17.01;74.52
39789;BME280;25478;42.626;23.320;2022-08-05T02:14:27;93297.88;;;16.98;74.34
39789;BME280;25478;42.626;23.320;2022-08-05T02:17:11;93304.00;;;16.95;74.49
39789;BME280;25478;42.626;23.320;2022-08-05T02:19:50;93272.03;;;16.79;74.68
39789;BME280;25478;42.626;23.320;2022-08-05T02:23:04;93293.78;;;16.94;74.72
39789;BME280;25478;42.626;23.320;2022-08-05T02:25:34;93295.38;;;16.91;74.51
39789;BME280;25478;42.626;23.320;2022-08-05T02:28:07;93291.25;;;16.86;75.06
39789;BME280;25478;42.626;23.320;2022-08-05T02:30:54;93292.00;;;16.87;75.28
39789;BME280;25478;42.626;23.320;2022-08-05T02:33:28;93294.75;;;16.83;75.80
39789;BME280;25478;42.626;23.320;2022-08-05T02:36:04;93290.63;;;16.79;76.13
39789;BME280;25478;42.626;23.320;2022-08-05T02:38:37;93286.56;;;16.74;76.01
39789;BME280;25478;42.626;23.320;2022-08-05T02:41:11;93283.53;;;16.72;76.00
39789;BME280;25478;42.626;23.320;2022-08-05T02:43:46;93290.75;;;16.72;75.57
39789;BME280;25478;42.626;23.320;2022-08-05T02:46:19;93285.47;;;16.68;75.55
39789;BME280;25478;42.626;23.320;2022-08-05T02:48:51;93281.69;;;16.69;75.44
39789;BME280;25478;42.626;23.320;2022-08-05T02:51:24;93284.75;;;16.68;75.31
39789;BME280;25478;42.626;23.320;2022-08-05T02:53:58;93286.66;;;16.67;75.13
39789;BME280;25478;42.626;23.320;2022-08-05T02:56:32;93286.66;;;16.67;75.08
39789;BME280;25478;42.626;23.320;2022-08-05T02:59:06;93287.81;;;16.66;74.83
39789;BME280;25478;42.626;23.320;2022-08-05T03:01:38;93281.00;;;16.65;74.94
39789;BME280;25478;42.626;23.320;2022-08-05T03:04:13;93281.00;;;16.65;75.04
39789;BME280;25478;42.626;23.320;2022-08-05T03:06:45;93279.19;;;16.58;75.27
39789;BME280;25478;42.626;23.320;2022-08-05T03:09:17;93284.03;;;16.64;75.16
39789;BME280;25478;42.626;23.320;2022-08-05T03:11:50;93282.13;;;16.64;74.91
39789;BME280;25478;42.626;23.320;2022-08-05T03:14:22;93268.56;;;16.58;74.75
39789;BME280;25478;42.626;23.320;2022-08-05T03:16:54;93288.16;;;16.68;74.28
39789;BME280;25478;42.626;23.320;2022-08-05T03:19:26;93290.00;;;16.71;74.16
39789;BME280;25478;42.626;23.320;2022-08-05T03:21:58;93290.38;;;16.73;73.54
39789;BME280;25478;42.626;23.320;2022-08-05T03:24:30;93282.31;;;16.77;73.47
39789;BME280;25478;42.626;23.320;2022-08-05T03:27:02;93289.53;;;16.76;73.96
39789;BME280;25478;42.626;23.320;2022-08-05T03:29:34;93288.81;;;16.76;74.74
39789;BME280;25478;42.626;23.320;2022-08-05T03:32:07;93276.81;;;16.64;74.49
39789;BME280;25478;42.626;23.320;2022-08-05T03:34:50;93296.78;;;16.76;74.28
39789;BME280;25478;42.626;23.320;2022-08-05T03:37:23;93285.41;;;16.75;74.76
39789;BME280;25478;42.626;23.320;2022-08-05T03:39:57;93289.53;;;16.76;74.86
39789;BME280;25478;42.626;23.320;2022-08-05T03:42:29;93290.06;;;16.68;74.56
39789;BME280;25478;42.626;23.320;2022-08-05T03:44:55;93288.09;;;16.72;75.15
39789;BME280;25478;42.626;23.320;2022-08-05T03:47:27;93289.22;;;16.74;75.66
39789;BME280;25478;42.626;23.320;2022-08-05T03:49:59;93292.22;;;16.76;75.80
39789;BME280;25478;42.626;23.320;2022-08-05T03:52:38;93290.63;;;16.79;75.50
39789;BME280;25478;42.626;23.320;2022-08-05T03:55:18;93280.00;;;16.79;76.12
39789;BME280;25478;42.626;23.320;2022-08-05T03:57:54;93294.31;;;16.85;76.36
39789;BME280;25478;42.626;23.320;2022-08-05T04:00:28;93287.44;;;16.87;76.48
39789;BME280;25478;42.626;23.320;2022-08-05T04:03:03;93287.38;;;16.91;76.21
39789;BME280;25478;42.626;23.320;2022-08-05T04:05:37;93283.50;;;16.96;75.71
39789;BME280;25478;42.626;23.320;2022-08-05T04:08:10;93287.94;;;17.02;75.42
39789;BME280;25478;42.626;23.320;2022-08-05T04:10:43;93294.28;;;17.08;75.19
39789;BME280;25478;42.626;23.320;2022-08-05T04:13:09;93283.91;;;17.14;74.67
39789;BME280;25478;42.626;23.320;2022-08-05T04:15:42;93290.84;;;17.28;74.87
39789;BME280;25478;42.626;23.320;2022-08-05T04:18:14;93290.72;;;17.35;75.07
39789;BME280;25478;42.626;23.320;2022-08-05T04:20:51;93292.13;;;17.39;75.75
39789;BME280;25478;42.626;23.320;2022-08-05T04:23:25;93284.09;;;17.43;76.07
39789;BME280;25478;42.626;23.320;2022-08-05T04:25:58;93286.63;;;17.50;76.01
39789;BME280;25478;42.626;23.320;2022-08-05T04:28:30;93283.41;;;17.59;75.72
39789;BME280;25478;42.626;23.320;2022-08-05T04:31:09;93281.34;;;17.66;74.96
39789;BME280;25478;42.626;23.320;2022-08-05T04:33:41;93266.16;;;17.63;74.80
39789;BME280;25478;42.626;23.320;2022-08-05T04:36:20;93282.88;;;17.84;74.43
39789;BME280;25478;42.626;23.320;2022-08-05T04:38:52;93283.38;;;17.95;74.28
39789;BME280;25478;42.626;23.320;2022-08-05T04:41:26;93280.47;;;18.06;74.88
39789;BME280;25478;42.626;23.320;2022-08-05T04:43:58;93282.97;;;18.13;74.78
39789;BME280;25478;42.626;23.320;2022-08-05T04:46:30;93282.41;;;18.21;74.94
39789;BME280;25478;42.626;23.320;2022-08-05T04:49:02;93266.16;;;18.16;74.78
39789;BME280;25478;42.626;23.320;2022-08-05T04:51:34;93287.13;;;18.30;74.51
39789;BME280;25478;42.626;23.320;2022-08-05T04:54:06;93288.16;;;18.36;74.56
39789;BME280;25478;42.626;23.320;2022-08-05T04:56:31;93287.13;;;18.46;74.24
39789;BME280;25478;42.626;23.320;2022-08-05T04:59:04;93283.81;;;18.59;73.77
39789;BME280;25478;42.626;23.320;2022-08-05T05:01:36;93283.56;;;18.69;73.54
39789;BME280;25478;42.626;23.320;2022-08-05T05:04:08;93287.75;;;18.83;73.70
39789;BME280;25478;42.626;23.320;2022-08-05T05:06:40;93284.31;;;18.99;73.13
39789;BME280;25478;42.626;23.320;2022-08-05T05:09:12;93279.25;;;19.17;72.51
39789;BME280;25478;42.626;23.320;2022-08-05T05:11:44;93284.84;;;19.48;70.91
39789;BME280;25478;42.626;23.320;2022-08-05T05:14:10;93285.47;;;19.81;69.35
39789;BME280;25478;42.626;23.320;2022-08-05T05:16:42;93281.81;;;20.13;67.86
39789;BME280;25478;42.626;23.320;2022-08-05T05:19:14;93279.88;;;20.39;66.26
39789;BME280;25478;42.626;23.320;2022-08-05T05:21:46;93279.63;;;20.59;65.38
39789;BME280;25478;42.626;23.320;2022-08-05T05:24:18;93273.56;;;20.80;64.83
39789;BME280;25478;42.626;23.320;2022-08-05T05:26:52;93279.19;;;21.17;64.05
39789;BME280;25478;42.626;23.320;2022-08-05T05:29:24;93276.84;;;21.41;63.11
39789;BME280;25478;42.626;23.320;2022-08-05T05:32:03;93274.59;;;21.61;62.79
39789;BME280;25478;42.626;23.320;2022-08-05T05:34:35;93280.16;;;21.76;61.89
39789;BME280;25478;42.626;23.320;2022-08-05T05:37:07;93265.00;;;21.82;61.34
39789;BME280;25478;42.626;23.320;2022-08-05T05:39:40;93274.94;;;22.04;61.53
39789;BME280;25478;42.626;23.320;2022-08-05T05:42:12;93264.09;;;22.07;60.97
39789;BME280;25478;42.626;23.320;2022-08-05T05:44:44;93275.47;;;22.30;60.30
39789;BME280;25478;42.626;23.320;2022-08-05T05:47:16;93287.91;;;22.55;59.19
39789;BME280;25478;42.626;23.320;2022-08-05T05:49:48;93277.47;;;22.66;58.75
39789;BME280;25478;42.626;23.320;2022-08-05T05:52:22;93281.34;;;22.74;58.42
39789;BME280;25478;42.626;23.320;2022-08-05T05:54:58;93264.34;;;22.77;57.67
39789;BME280;25478;42.626;23.320;2022-08-05T05:57:31;93278.56;;;22.96;57.73
39789;BME280;25478;42.626;23.320;2022-08-05T06:00:05;93287.94;;;23.19;56.86
39789;BME280;25478;42.626;23.320;2022-08-05T06:02:40;93278.84;;;23.25;56.19
39789;BME280;25478;42.626;23.320;2022-08-05T06:05:14;93289.13;;;23.36;55.14
39789;BME280;25478;42.626;23.320;2022-08-05T06:07:47;93283.72;;;23.45;54.77
39789;BME280;25478;42.626;23.320;2022-08-05T06:10:14;93288.34;;;23.54;54.22
39789;BME280;25478;42.626;23.320;2022-08-05T06:12:46;93290.13;;;23.57;53.77
39789;BME280;25478;42.626;23.320;2022-08-05T06:15:18;93298.22;;;23.66;53.38
39789;BME280;25478;42.626;23.320;2022-08-05T06:17:51;93288.63;;;23.74;53.21
39789;BME280;25478;42.626;23.320;2022-08-05T06:20:23;93288.31;;;23.81;53.16
39789;BME280;25478;42.626;23.320;2022-08-05T06:22:55;93293.63;;;24.00;52.73
39789;BME280;25478;42.626;23.320;2022-08-05T06:25:27;93288.94;;;24.09;52.56
39789;BME280;25478;42.626;23.320;2022-08-05T06:27:59;93289.81;;;24.15;51.95
39789;BME280;25478;42.626;23.320;2022-08-05T06:30:31;93297.72;;;24.19;51.68
39789;BME280;25478;42.626;23.320;2022-08-05T06:33:17;93287.22;;;24.30;51.51
39789;BME280;25478;42.626;23.320;2022-08-05T06:35:49;93293.38;;;24.55;51.04
39789;BME280;25478;42.626;23.320;2022-08-05T06:38:21;93291.00;;;24.95;49.93
39789;BME280;25478;42.626;23.320;2022-08-05T06:40:46;93298.47;;;25.24;48.93
39789;BME280;25478;42.626;23.320;2022-08-05T06:43:19;93296.88;;;25.47;47.93
39789;BME280;25478;42.626;23.320;2022-08-05T06:45:51;93288.53;;;25.60;47.70
39789;BME280;25478;42.626;23.320;2022-08-05T06:48:23;93289.09;;;25.64;47.41
39789;BME280;25478;42.626;23.320;2022-08-05T06:50:55;93297.19;;;25.64;47.11
39789;BME280;25478;42.626;23.320;2022-08-05T06:53:28;93279.06;;;25.50;46.54
39789;BME280;25478;42.626;23.320;2022-08-05T06:56:00;93276.53;;;25.46;46.97
39789;BME280;25478;42.626;23.320;2022-08-05T06:58:36;93294.88;;;25.57;47.64
39789;BME280;25478;42.626;23.320;2022-08-05T07:01:08;93288.19;;;25.82;47.02
39789;BME280;25478;42.626;23.320;2022-08-05T07:03:40;93285.66;;;26.08;46.69
39789;BME280;25478;42.626;23.320;2022-08-05T07:06:12;93280.34;;;26.14;46.06
39789;BME280;25478;42.626;23.320;2022-08-05T07:08:44;93287.41;;;26.11;46.00
39789;BME280;25478;42.626;23.320;2022-08-05T07:11:16;93287.69;;;26.13;46.42
39789;BME280;25478;42.626;23.320;2022-08-05T07:13:42;93296.41;;;26.23;46.20
39789;BME280;25478;42.626;23.320;2022-08-05T07:16:33;93290.75;;;26.21;45.74
39789;BME280;25478;42.626;23.320;2022-08-05T07:19:20;93286.56;;;26.20;45.81
39789;BME280;25478;42.626;23.320;2022-08-05T07:21:52;93290.47;;;26.19;45.34
39789;BME280;25478;42.626;23.320;2022-08-05T07:24:24;93296.25;;;26.12;45.46
39789;BME280;25478;42.626;23.320;2022-08-05T07:26:56;93290.13;;;26.11;45.45
39789;BME280;25478;42.626;23.320;2022-08-05T07:29:21;93284.72;;;26.11;45.38
39789;BME280;25478;42.626;23.320;2022-08-05T07:31:53;93297.16;;;26.23;45.48
39789;BME280;25478;42.626;23.320;2022-08-05T07:34:32;93291.19;;;26.34;44.83
39789;BME280;25478;42.626;23.320;2022-08-05T07:37:04;93302.50;;;26.53;44.09
39789;BME280;25478;42.626;23.320;2022-08-05T07:39:36;93298.66;;;26.59;43.74
39789;BME280;25478;42.626;23.320;2022-08-05T07:42:08;93301.63;;;26.61;43.78
39789;BME280;25478;42.626;23.320;2022-08-05T07:44:40;93305.56;;;26.60;44.60
39789;BME280;25478;42.626;23.320;2022-08-05T07:47:12;93299.16;;;26.78;43.74
39789;BME280;25478;42.626;23.320;2022-08-05T07:49:44;93297.53;;;26.86;42.97
39789;BME280;25478;42.626;23.320;2022-08-05T07:52:16;93296.44;;;26.78;42.95
39789;BME280;25478;42.626;23.320;2022-08-05T07:54:49;93293.09;;;26.83;43.17
39789;BME280;25478;42.626;23.320;2022-08-05T07:57:21;93295.31;;;27.05;42.77
39789;BME280;25478;42.626;23.320;2022-08-05T07:59:53;93295.25;;;27.20;42.35
39789;BME280;25478;42.626;23.320;2022-08-05T08:02:23;93291.91;;;27.31;42.15
39789;BME280;25478;42.626;23.320;2022-08-05T08:04:56;93286.50;;;27.31;41.50
39789;BME280;25478;42.626;23.320;2022-08-05T08:07:28;93292.22;;;27.38;41.93
39789;BME280;25478;42.626;23.320;2022-08-05T08:10:00;93295.81;;;27.50;41.48
39789;BME280;25478;42.626;23.320;2022-08-05T08:12:32;93291.97;;;27.62;41.18
39789;BME280;25478;42.626;23.320;2022-08-05T08:15:05;93303.19;;;27.75;40.07
39789;BME280;25478;42.626;23.320;2022-08-05T08:17:38;93296.03;;;27.72;40.42
39789;BME280;25478;42.626;23.320;2022-08-05T08:20:10;93300.31;;;27.85;40.22
39789;BME280;25478;42.626;23.320;2022-08-05T08:22:49;93297.00;;;28.01;39.76
39789;BME280;25478;42.626;23.320;2022-08-05T08:25:22;93289.72;;;28.13;39.26
39789;BME280;25478;42.626;23.320;2022-08-05T08:27:55;93284.47;;;28.03;38.84
39789;BME280;25478;42.626;23.320;2022-08-05T08:30:34;93297.78;;;28.07;39.09
39789;BME280;25478;42.626;23.320;2022-08-05T08:33:08;93287.25;;;28.15;38.87
39789;BME280;25478;42.626;23.320;2022-08-05T08:35:40;93292.19;;;28.16;38.70
39789;BME280;25478;42.626;23.320;2022-08-05T08:38:12;93290.25;;;28.17;38.39
39789;BME280;25478;42.626;23.320;2022-08-05T08:40:47;93297.13;;;28.18;38.11
39789;BME280;25478;42.626;23.320;2022-08-05T08:43:21;93291.94;;;28.14;37.49
39789;BME280;25478;42.626;23.320;2022-08-05T08:45:55;93290.94;;;28.12;36.29
39789;BME280;25478;42.626;23.320;2022-08-05T08:48:29;93292.72;;;28.20;35.38
39789;BME280;25478;42.626;23.320;2022-08-05T08:51:02;93301.63;;;28.26;34.72
39789;BME280;25478;42.626;23.320;2022-08-05T08:53:37;93290.09;;;28.31;34.81
39789;BME280;25478;42.626;23.320;2022-08-05T08:56:09;93289.91;;;28.41;34.73
39789;BME280;25478;42.626;23.320;2022-08-05T08:58:41;93290.69;;;28.47;35.55
39789;BME280;25478;42.626;23.320;2022-08-05T09:01:14;93287.00;;;28.50;36.24
39789;BME280;25478;42.626;23.320;2022-08-05T09:03:51;93283.41;;;28.64;35.89
39789;BME280;25478;42.626;23.320;2022-08-05T09:06:25;93289.06;;;28.66;35.15
39789;BME280;25478;42.626;23.320;2022-08-05T09:08:59;93283.16;;;28.62;35.32
39789;BME280;25478;42.626;23.320;2022-08-05T09:11:33;93274.03;;;28.65;34.65
39789;BME280;25478;42.626;23.320;2022-08-05T09:14:05;93265.16;;;28.59;34.39
39789;BME280;25478;42.626;23.320;2022-08-05T09:16:31;93275.31;;;28.70;34.76
39789;BME280;25478;42.626;23.320;2022-08-05T09:19:03;93275.53;;;28.66;34.83
39789;BME280;25478;42.626;23.320;2022-08-05T09:21:35;93270.59;;;28.59;34.63
39789;BME280;25478;42.626;23.320;2022-08-05T09:24:08;93257.66;;;28.37;34.72
39789;BME280;25478;42.626;23.320;2022-08-05T09:26:40;93265.53;;;28.41;34.75
39789;BME280;25478;42.626;23.320;2022-08-05T09:29:12;93247.56;;;28.38;34.47
39789;BME280;25478;42.626;23.320;2022-08-05T09:32:02;93259.47;;;28.51;34.74
39789;BME280;25478;42.626;23.320;2022-08-05T09:34:53;93244.91;;;28.43;34.10
39789;BME280;25478;42.626;23.320;2022-08-05T09:37:26;93261.66;;;28.47;33.40
39789;BME280;25478;42.626;23.320;2022-08-05T09:39:59;93260.16;;;28.46;32.96
39789;BME280;25478;42.626;23.320;2022-08-05T09:42:38;93261.69;;;28.53;33.65
39789;BME280;25478;42.626;23.320;2022-08-05T09:45:11;93244.97;;;28.60;34.21
39789;BME280;25478;42.626;23.320;2022-08-05T09:47:43;93253.66;;;28.70;33.72
39789;BME280;25478;42.626;23.320;2022-08-05T09:50:18;93247.25;;;28.73;33.70
39789;BME280;25478;42.626;23.320;2022-08-05T09:52:56;93241.81;;;28.73;33.58
39789;BME280;25478;42.626;23.320;2022-08-05T09:55:34;93247.97;;;28.73;34.06
39789;BME280;25478;42.626;23.320;2022-08-05T09:58:13;93242.09;;;28.80;34.02
39789;BME280;25478;42.626;23.320;2022-08-05T10:00:56;93243.41;;;28.91;34.36
39789;BME280;25478;42.626;23.320;2022-08-05T10:03:29;93245.16;;;28.94;33.36
39789;BME280;25478;42.626;23.320;2022-08-05T10:06:06;93236.75;;;28.92;33.42
39789;BME280;25478;42.626;23.320;2022-08-05T10:08:39;93231.59;;;28.94;33.04
39789;BME280;25478;42.626;23.320;2022-08-05T10:11:15;93233.56;;;28.93;32.32
39789;BME280;25478;42.626;23.320;2022-08-05T10:13:48;93232.03;;;28.86;32.52
39789;BME280;25478;42.626;23.320;2022-08-05T10:16:32;93229.06;;;28.84;32.51
39789;BME280;25478;42.626;23.320;2022-08-05T10:19:04;93224.44;;;28.91;33.29
39789;BME280;25478;42.626;23.320;2022-08-05T10:21:37;93224.97;;;29.06;32.70
39789;BME280;25478;42.626;23.320;2022-08-05T10:24:09;93219.84;;;29.19;32.18
39789;BME280;25478;42.626;23.320;2022-08-05T10:26:46;93226.97;;;29.22;32.50
39789;BME280;25478;42.626;23.320;2022-08-05T10:29:21;93211.22;;;29.26;32.65
39789;BME280;25478;42.626;23.320;2022-08-05T10:32:01;93213.94;;;29.26;31.93
39789;BME280;25478;42.626;23.320;2022-08-05T10:34:33;93212.16;;;29.17;32.52
39789;BME280;25478;42.626;23.320;2022-08-05T10:37:06;93218.34;;;29.24;32.35
39789;BME280;25478;42.626;23.320;2022-08-05T10:39:44;93216.13;;;29.16;32.34
39789;BME280;25478;42.626;23.320;2022-08-05T10:42:20;93201.59;;;29.14;32.20
39789;BME280;25478;42.626;23.320;2022-08-05T10:44:54;93212.22;;;29.29;32.35
39789;BME280;25478;42.626;23.320;2022-08-05T10:47:30;93207.53;;;29.35;32.76
39789;BME280;25478;42.626;23.320;2022-08-05T10:50:08;93202.34;;;29.42;32.33
39789;BME280;25478;42.626;23.320;2022-08-05T10:52:49;93197.94;;;29.51;31.25
39789;BME280;25478;42.626;23.320;2022-08-05T10:55:30;93205.06;;;29.48;31.29
39789;BME280;25478;42.626;23.320;2022-08-05T10:58:10;93195.47;;;29.47;31.60
39789;BME280;25478;42.626;23.320;2022-08-05T11:00:46;93201.16;;;29.49;32.00
39789;BME280;25478;42.626;23.320;2022-08-05T11:03:19;93188.34;;;29.55;31.30
39789;BME280;25478;42.626;23.320;2022-08-05T11:06:11;93190.81;;;29.64;31.23
39789;BME280;25478;42.626;23.320;2022-08-05T11:11:41;93185.09;;;29.85;30.82
39789;BME280;25478;42.626;23.320;2022-08-05T11:14:33;93188.56;;;29.91;30.85
39789;BME280;25478;42.626;23.320;2022-08-05T11:17:28;93194.25;;;29.87;30.77
39789;BME280;25478;42.626;23.320;2022-08-05T11:20:01;93190.28;;;29.88;30.55
39789;BME280;25478;42.626;23.320;2022-08-05T11:22:45;93188.06;;;29.98;30.76
39789;BME280;25478;42.626;23.320;2022-08-05T11:25:35;93177.47;;;30.11;30.74
39789;BME280;25478;42.626;23.320;2022-08-05T11:33:38;93172.69;;;30.34;30.05
39789;BME280;25478;42.626;23.320;2022-08-05T11:36:11;93178.84;;;30.40;30.29
39789;BME280;25478;42.626;23.320;2022-08-05T11:41:23;93171.50;;;30.24;30.43
39789;BME280;25478;42.626;23.320;2022-08-05T11:49:05;93180.41;;;30.13;31.17
39789;BME280;25478;42.626;23.320;2022-08-05T11:51:40;93166.84;;;30.19;30.10
39789;BME280;25478;42.626;23.320;2022-08-05T11:54:24;93169.75;;;30.26;29.95
39789;BME280;25478;42.626;23.320;2022-08-05T11:56:59;93163.56;;;30.32;30.22
39789;BME280;25478;42.626;23.320;2022-08-05T11:59:27;93168.22;;;30.42;30.36
39789;BME280;25478;42.626;23.320;2022-08-05T12:02:04;93161.28;;;30.52;29.76
39789;BME280;25478;42.626;23.320;2022-08-05T12:04:44;93165.69;;;30.61;29.73
39789;BME280;25478;42.626;23.320;2022-08-05T12:07:17;93151.59;;;30.63;29.27
39789;BME280;25478;42.626;23.320;2022-08-05T12:09:53;93162.94;;;30.78;29.32
39789;BME280;25478;42.626;23.320;2022-08-05T12:12:26;93164.41;;;30.79;28.88
39789;BME280;25478;42.626;23.320;2022-08-05T12:15:00;93160.91;;;30.84;29.14
39789;BME280;25478;42.626;23.320;2022-08-05T12:17:34;93158.91;;;30.85;28.90
39789;BME280;25478;42.626;23.320;2022-08-05T12:20:07;93154.50;;;30.81;28.59
39789;BME280;25478;42.626;23.320;2022-08-05T12:22:40;93155.03;;;30.74;29.13
39789;BME280;25478;42.626;23.320;2022-08-05T12:25:12;93152.78;;;30.78;28.82
39789;BME280;25478;42.626;23.320;2022-08-05T12:27:37;93159.19;;;30.81;28.62
39789;BME280;25478;42.626;23.320;2022-08-05T12:30:13;93156.19;;;30.90;28.98
39789;BME280;25478;42.626;23.320;2022-08-05T12:32:52;93147.19;;;31.06;29.12
39789;BME280;25478;42.626;23.320;2022-08-05T12:35:26;93149.59;;;31.16;27.99
39789;BME280;25478;42.626;23.320;2022-08-05T12:37:58;93136.00;;;31.21;28.40
39789;BME280;25478;42.626;23.320;2022-08-05T12:40:30;93140.38;;;31.30;28.23
39789;BME280;25478;42.626;23.320;2022-08-05T12:43:05;93130.44;;;31.38;28.38
39789;BME280;25478;42.626;23.320;2022-08-05T12:45:37;93134.28;;;31.48;29.05
39789;BME280;25478;42.626;23.320;2022-08-05T12:48:15;93133.22;;;31.57;28.23
39789;BME280;25478;42.626;23.320;2022-08-05T12:51:23;93122.56;;;31.59;28.37
39789;BME280;25478;42.626;23.320;2022-08-05T12:54:00;93123.53;;;31.61;28.27
39789;BME280;25478;42.626;23.320;2022-08-05T12:56:32;93123.09;;;31.57;28.18
39789;BME280;25478;42.626;23.320;2022-08-05T13:01:44;93114.44;;;31.29;28.06
39789;BME280;25478;42.626;23.320;2022-08-05T13:04:17;93121.16;;;31.22;28.38
39789;BME280;25478;42.626;23.320;2022-08-05T13:06:49;93125.88;;;31.10;28.31
39789;BME280;25478;42.626;23.320;2022-08-05T13:09:21;93118.78;;;31.02;28.78
39789;BME280;25478;42.626;23.320;2022-08-05T13:12:14;93111.19;;;30.95;28.76
39789;BME280;25478;42.626;23.320;2022-08-05T13:14:58;93110.88;;;31.04;28.37
39789;BME280;25478;42.626;23.320;2022-08-05T13:17:31;93106.63;;;31.08;27.59
39789;BME280;25478;42.626;23.320;2022-08-05T13:22:38;93108.59;;;31.14;27.78
39789;BME280;25478;42.626;23.320;2022-08-05T13:25:12;93105.94;;;31.02;28.20
39789;BME280;25478;42.626;23.320;2022-08-05T13:27:52;93103.81;;;30.84;29.62
39789;BME280;25478;42.626;23.320;2022-08-05T13:30:25;93110.13;;;30.62;29.89
39789;BME280;25478;42.626;23.320;2022-08-05T13:32:57;93098.41;;;30.32;30.06
39789;BME280;25478;42.626;23.320;2022-08-05T13:35:36;93109.59;;;30.11;30.38
39789;BME280;25478;42.626;23.320;2022-08-05T13:38:08;93105.66;;;29.95;31.15
39789;BME280;25478;42.626;23.320;2022-08-05T13:40:40;93102.00;;;29.76;31.23
39789;BME280;25478;42.626;23.320;2022-08-05T13:43:13;93094.66;;;29.60;32.08
39789;BME280;25478;42.626;23.320;2022-08-05T13:45:45;93103.53;;;29.49;32.21
39789;BME280;25478;42.626;23.320;2022-08-05T13:48:17;93104.75;;;29.31;33.08
39789;BME280;25478;42.626;23.320;2022-08-05T13:50:49;93098.34;;;29.23;33.15
39789;BME280;25478;42.626;23.320;2022-08-05T13:53:21;93105.47;;;29.15;33.83
39789;BME280;25478;42.626;23.320;2022-08-05T13:55:53;93102.50;;;29.07;33.85
39789;BME280;25478;42.626;23.320;2022-08-05T13:58:18;93107.94;;;29.02;33.49